sensor_id;sensor_type;location;lat;lon;timestamp;pressure;altitude;pressure_sealevel;temperature
70969;BMP280;58630;43.022;25.100;2023-02-18T00:02:20;100064.63;;;11.61
70969;BMP280;58630;43.022;25.100;2023-02-18T00:04:46;100057.09;;;11.59
70969;BMP280;58630;43.022;25.100;2023-02-18T00:07:11;100058.38;;;11.57
70969;BMP280;58630;43.022;25.100;2023-02-18T00:09:37;100050.00;;;11.55
70969;BMP280;58630;43.022;25.100;2023-02-18T00:12:02;100046.03;;;11.52
70969;BMP280;58630;43.022;25.100;2023-02-18T00:14:28;100048.13;;;11.50
70969;BMP280;58630;43.022;25.100;2023-02-18T00:16:53;100041.34;;;11.49
70969;BMP280;58630;43.022;25.100;2023-02-18T00:19:18;100044.22;;;11.48
70969;BMP280;58630;43.022;25.100;2023-02-18T00:21:44;100032.22;;;11.47
70969;BMP280;58630;43.022;25.100;2023-02-18T00:24:10;100033.53;;;11.44
70969;BMP280;58630;43.022;25.100;2023-02-18T00:26:35;100030.38;;;11.42
70969;BMP280;58630;43.022;25.100;2023-02-18T00:29:01;100022.03;;;11.40
70969;BMP280;58630;43.022;25.100;2023-02-18T00:31:28;100021.22;;;11.40
70969;BMP280;58630;43.022;25.100;2023-02-18T00:33:54;100024.06;;;11.38
70969;BMP280;58630;43.022;25.100;2023-02-18T00:36:19;100017.78;;;11.34
70969;BMP280;58630;43.022;25.100;2023-02-18T00:38:46;100027.41;;;11.34
70969;BMP280;58630;43.022;25.100;2023-02-18T00:41:11;100030.81;;;11.34
70969;BMP280;58630;43.022;25.100;2023-02-18T00:43:37;100023.47;;;11.31
70969;BMP280;58630;43.022;25.100;2023-02-18T00:46:02;100021.91;;;11.30
70969;BMP280;58630;43.022;25.100;2023-02-18T00:48:27;100015.63;;;11.26
70969;BMP280;58630;43.022;25.100;2023-02-18T00:50:53;100011.22;;;11.27
70969;BMP280;58630;43.022;25.100;2023-02-18T00:53:18;100009.66;;;11.26
70969;BMP280;58630;43.022;25.100;2023-02-18T00:55:45;100002.06;;;11.24
70969;BMP280;58630;43.022;25.100;2023-02-18T00:58:13;99999.75;;;11.23
70969;BMP280;58630;43.022;25.100;2023-02-18T01:00:39;100001.53;;;11.22
70969;BMP280;58630;43.022;25.100;2023-02-18T01:03:04;100001.00;;;11.20
70969;BMP280;58630;43.022;25.100;2023-02-18T01:05:31;100003.03;;;11.18
70969;BMP280;58630;43.022;25.100;2023-02-18T01:07:57;99994.69;;;11.16
70969;BMP280;58630;43.022;25.100;2023-02-18T01:10:22;99993.13;;;11.15
70969;BMP280;58630;43.022;25.100;2023-02-18T01:12:47;99993.13;;;11.15
70969;BMP280;58630;43.022;25.100;2023-02-18T01:15:14;99987.91;;;11.15
70969;BMP280;58630;43.022;25.100;2023-02-18T01:17:39;99978.03;;;11.12
70969;BMP280;58630;43.022;25.100;2023-02-18T01:20:05;99980.09;;;11.10
70969;BMP280;58630;43.022;25.100;2023-02-18T01:22:30;99978.78;;;11.08
70969;BMP280;58630;43.022;25.100;2023-02-18T01:24:56;99972.00;;;11.07
70969;BMP280;58630;43.022;25.100;2023-02-18T01:27:21;99980.59;;;11.08
70969;BMP280;58630;43.022;25.100;2023-02-18T01:29:46;99977.44;;;11.06
70969;BMP280;58630;43.022;25.100;2023-02-18T01:32:12;99976.09;;;11.03
70969;BMP280;58630;43.022;25.100;2023-02-18T01:34:37;99972.72;;;11.03
70969;BMP280;58630;43.022;25.100;2023-02-18T01:37:02;99976.34;;;11.02
70969;BMP280;58630;43.022;25.100;2023-02-18T01:39:28;99974.78;;;11.01
70969;BMP280;58630;43.022;25.100;2023-02-18T01:41:53;99974.25;;;10.99
70969;BMP280;58630;43.022;25.100;2023-02-18T01:44:22;99978.91;;;10.97
70969;BMP280;58630;43.022;25.100;2023-02-18T01:46:48;99981.75;;;10.95
70969;BMP280;58630;43.022;25.100;2023-02-18T01:49:17;99979.38;;;10.94
70969;BMP280;58630;43.022;25.100;2023-02-18T01:51:45;99965.59;;;10.93
70969;BMP280;58630;43.022;25.100;2023-02-18T01:54:19;99978.84;;;10.92
70969;BMP280;58630;43.022;25.100;2023-02-18T01:56:59;99971.50;;;10.89
70969;BMP280;58630;43.022;25.100;2023-02-18T01:59:27;99971.97;;;10.86
70969;BMP280;58630;43.022;25.100;2023-02-18T02:01:54;99971.97;;;10.86
70969;BMP280;58630;43.022;25.100;2023-02-18T02:04:20;99960.03;;;10.85
70969;BMP280;58630;43.022;25.100;2023-02-18T02:06:45;99968.34;;;10.82
70969;BMP280;58630;43.022;25.100;2023-02-18T02:09:11;99964.94;;;10.81
70969;BMP280;58630;43.022;25.100;2023-02-18T02:11:47;99966.97;;;10.79
70969;BMP280;58630;43.022;25.100;2023-02-18T02:22:10;99957.56;;;10.73
70969;BMP280;58630;43.022;25.100;2023-02-18T02:40:00;99956.66;;;10.63
70969;BMP280;58630;43.022;25.100;2023-02-18T02:44:57;99964.38;;;10.58
70969;BMP280;58630;43.022;25.100;2023-02-18T02:50:00;99958.13;;;10.54
70969;BMP280;58630;43.022;25.100;2023-02-18T02:52:32;99960.97;;;10.52
70969;BMP280;58630;43.022;25.100;2023-02-18T02:54:58;99962.75;;;10.52
70969;BMP280;58630;43.022;25.100;2023-02-18T02:59:56;99960.66;;;10.49
70969;BMP280;58630;43.022;25.100;2023-02-18T03:04:58;99956.72;;;10.46
70969;BMP280;58630;43.022;25.100;2023-02-18T03:15:22;99967.28;;;10.40
70969;BMP280;58630;43.022;25.100;2023-02-18T03:17:59;99961.56;;;10.38
70969;BMP280;58630;43.022;25.100;2023-02-18T03:20:27;99971.16;;;10.38
70969;BMP280;58630;43.022;25.100;2023-02-18T03:22:53;99957.59;;;10.36
70969;BMP280;58630;43.022;25.100;2023-02-18T03:25:19;99956.28;;;10.33
70969;BMP280;58630;43.022;25.100;2023-02-18T03:27:50;99964.88;;;10.34
70969;BMP280;58630;43.022;25.100;2023-02-18T03:30:20;99975.47;;;10.32
70969;BMP280;58630;43.022;25.100;2023-02-18T03:32:47;99985.09;;;10.32
70969;BMP280;58630;43.022;25.100;2023-02-18T03:35:16;99984.78;;;10.28
70969;BMP280;58630;43.022;25.100;2023-02-18T03:37:44;99969.66;;;10.25
70969;BMP280;58630;43.022;25.100;2023-02-18T03:40:11;99964.47;;;10.25
70969;BMP280;58630;43.022;25.100;2023-02-18T03:42:36;99979.50;;;10.23
70969;BMP280;58630;43.022;25.100;2023-02-18T03:45:02;99975.34;;;10.22
70969;BMP280;58630;43.022;25.100;2023-02-18T03:47:27;99970.16;;;10.22
70969;BMP280;58630;43.022;25.100;2023-02-18T03:49:53;99976.63;;;10.20
70969;BMP280;58630;43.022;25.100;2023-02-18T03:52:18;99975.81;;;10.19
70969;BMP280;58630;43.022;25.100;2023-02-18T03:54:43;99972.69;;;10.17
70969;BMP280;58630;43.022;25.100;2023-02-18T03:57:09;99972.69;;;10.17
70969;BMP280;58630;43.022;25.100;2023-02-18T03:59:34;99972.38;;;10.14
70969;BMP280;58630;43.022;25.100;2023-02-18T04:01:59;99963.00;;;10.13
70969;BMP280;58630;43.022;25.100;2023-02-18T04:04:25;99961.22;;;10.13
70969;BMP280;58630;43.022;25.100;2023-02-18T04:06:50;99952.06;;;10.11
70969;BMP280;58630;43.022;25.100;2023-02-18T04:09:15;99946.31;;;10.09
70969;BMP280;58630;43.022;25.100;2023-02-18T04:11:41;99950.94;;;10.07
70969;BMP280;58630;43.022;25.100;2023-02-18T04:14:06;99943.44;;;10.05
70969;BMP280;58630;43.022;25.100;2023-02-18T04:16:31;99944.44;;;10.04
70969;BMP280;58630;43.022;25.100;2023-02-18T04:18:57;99931.94;;;10.01
70969;BMP280;58630;43.022;25.100;2023-02-18T04:21:22;99933.50;;;10.02
70969;BMP280;58630;43.022;25.100;2023-02-18T04:23:47;99936.34;;;10.01
70969;BMP280;58630;43.022;25.100;2023-02-18T04:26:13;99933.97;;;9.99
70969;BMP280;58630;43.022;25.100;2023-02-18T04:28:38;99925.66;;;9.97
70969;BMP280;58630;43.022;25.100;2023-02-18T04:31:03;99925.91;;;9.96
70969;BMP280;58630;43.022;25.100;2023-02-18T04:33:28;99925.34;;;9.94
70969;BMP280;58630;43.022;25.100;2023-02-18T04:35:54;99925.34;;;9.94
70969;BMP280;58630;43.022;25.100;2023-02-18T04:38:19;99917.56;;;9.94
70969;BMP280;58630;43.022;25.100;2023-02-18T04:40:44;99914.63;;;9.90
70969;BMP280;58630;43.022;25.100;2023-02-18T04:43:10;99922.41;;;9.90
70969;BMP280;58630;43.022;25.100;2023-02-18T04:45:35;99925.50;;;9.87
70969;BMP280;58630;43.022;25.100;2023-02-18T04:48:00;99919.53;;;9.87
70969;BMP280;58630;43.022;25.100;2023-02-18T04:50:26;99907.56;;;9.86
70969;BMP280;58630;43.022;25.100;2023-02-18T04:52:51;99907.56;;;9.86
70969;BMP280;58630;43.022;25.100;2023-02-18T04:55:16;99915.59;;;9.84
70969;BMP280;58630;43.022;25.100;2023-02-18T04:57:42;99907.25;;;9.82
70969;BMP280;58630;43.022;25.100;2023-02-18T05:00:07;99906.47;;;9.82
70969;BMP280;58630;43.022;25.100;2023-02-18T05:02:33;99906.72;;;9.80
70969;BMP280;58630;43.022;25.100;2023-02-18T05:04:58;99914.53;;;9.80
70969;BMP280;58630;43.022;25.100;2023-02-18T05:07:24;99913.97;;;9.78
70969;BMP280;58630;43.022;25.100;2023-02-18T05:09:49;99911.81;;;9.75
70969;BMP280;58630;43.022;25.100;2023-02-18T05:12:14;99904.03;;;9.75
70969;BMP280;58630;43.022;25.100;2023-02-18T05:14:39;99904.25;;;9.74
70969;BMP280;58630;43.022;25.100;2023-02-18T05:17:05;99905.06;;;9.74
70969;BMP280;58630;43.022;25.100;2023-02-18T05:19:30;99902.69;;;9.73
70969;BMP280;58630;43.022;25.100;2023-02-18T05:21:55;99907.88;;;9.73
70969;BMP280;58630;43.022;25.100;2023-02-18T05:24:21;99898.78;;;9.70
70969;BMP280;58630;43.022;25.100;2023-02-18T05:26:46;99912.78;;;9.69
70969;BMP280;58630;43.022;25.100;2023-02-18T05:29:11;99912.22;;;9.67
70969;BMP280;58630;43.022;25.100;2023-02-18T05:31:37;99897.66;;;9.66
70969;BMP280;58630;43.022;25.100;2023-02-18T05:34:02;99916.84;;;9.65
70969;BMP280;58630;43.022;25.100;2023-02-18T05:36:27;99905.69;;;9.65
70969;BMP280;58630;43.022;25.100;2023-02-18T05:38:53;99901.75;;;9.63
70969;BMP280;58630;43.022;25.100;2023-02-18T05:41:18;99901.00;;;9.62
70969;BMP280;58630;43.022;25.100;2023-02-18T05:43:44;99899.41;;;9.61
70969;BMP280;58630;43.022;25.100;2023-02-18T05:46:28;99892.41;;;9.62
70969;BMP280;58630;43.022;25.100;2023-02-18T05:48:53;99880.44;;;9.61
70969;BMP280;58630;43.022;25.100;2023-02-18T05:51:18;99878.09;;;9.59
70969;BMP280;58630;43.022;25.100;2023-02-18T05:53:43;99863.75;;;9.57
70969;BMP280;58630;43.022;25.100;2023-02-18T05:56:09;99867.94;;;9.58
70969;BMP280;58630;43.022;25.100;2023-02-18T05:58:34;99868.97;;;9.57
70969;BMP280;58630;43.022;25.100;2023-02-18T06:00:59;99867.41;;;9.56
70969;BMP280;58630;43.022;25.100;2023-02-18T06:03:25;99856.50;;;9.54
70969;BMP280;58630;43.022;25.100;2023-02-18T06:05:50;99860.69;;;9.55
70969;BMP280;58630;43.022;25.100;2023-02-18T06:08:15;99858.84;;;9.55
70969;BMP280;58630;43.022;25.100;2023-02-18T06:10:41;99871.06;;;9.55
70969;BMP280;58630;43.022;25.100;2023-02-18T06:13:06;99870.25;;;9.54
70969;BMP280;58630;43.022;25.100;2023-02-18T06:15:31;99867.91;;;9.53
70969;BMP280;58630;43.022;25.100;2023-02-18T06:17:57;99860.13;;;9.53
70969;BMP280;58630;43.022;25.100;2023-02-18T06:20:22;99867.91;;;9.53
70969;BMP280;58630;43.022;25.100;2023-02-18T06:22:47;99853.09;;;9.53
70969;BMP280;58630;43.022;25.100;2023-02-18T06:25:12;99854.94;;;9.53
70969;BMP280;58630;43.022;25.100;2023-02-18T06:27:38;99861.91;;;9.52
70969;BMP280;58630;43.022;25.100;2023-02-18T06:30:03;99867.91;;;9.53
70969;BMP280;58630;43.022;25.100;2023-02-18T06:32:28;99856.72;;;9.52
70969;BMP280;58630;43.022;25.100;2023-02-18T06:34:54;99864.50;;;9.52
70969;BMP280;58630;43.022;25.100;2023-02-18T06:37:19;99865.31;;;9.53
70969;BMP280;58630;43.022;25.100;2023-02-18T06:39:45;99860.13;;;9.53
70969;BMP280;58630;43.022;25.100;2023-02-18T06:42:10;99865.31;;;9.53
70969;BMP280;58630;43.022;25.100;2023-02-18T06:44:35;99859.09;;;9.54
70969;BMP280;58630;43.022;25.100;2023-02-18T06:47:02;99870.25;;;9.54
70969;BMP280;58630;43.022;25.100;2023-02-18T06:49:27;99853.91;;;9.54
70969;BMP280;58630;43.022;25.100;2023-02-18T06:51:52;99856.25;;;9.55
70969;BMP280;58630;43.022;25.100;2023-02-18T06:54:17;99860.69;;;9.55
70969;BMP280;58630;43.022;25.100;2023-02-18T06:56:43;99854.44;;;9.56
70969;BMP280;58630;43.022;25.100;2023-02-18T06:59:08;99844.06;;;9.56
70969;BMP280;58630;43.022;25.100;2023-02-18T07:01:33;99842.25;;;9.56
70969;BMP280;58630;43.022;25.100;2023-02-18T07:03:59;99845.59;;;9.57
70969;BMP280;58630;43.022;25.100;2023-02-18T07:06:24;99843.81;;;9.57
70969;BMP280;58630;43.022;25.100;2023-02-18T07:08:49;99848.75;;;9.59
70969;BMP280;58630;43.022;25.100;2023-02-18T07:11:14;99838.94;;;9.61
70969;BMP280;58630;43.022;25.100;2023-02-18T07:13:40;99845.72;;;9.62
70969;BMP280;58630;43.022;25.100;2023-02-18T07:16:05;99853.00;;;9.64
70969;BMP280;58630;43.022;25.100;2023-02-18T07:18:30;99849.38;;;9.65
70969;BMP280;58630;43.022;25.100;2023-02-18T07:20:56;99829.44;;;9.66
70969;BMP280;58630;43.022;25.100;2023-02-18T07:23:21;99853.34;;;9.68
70969;BMP280;58630;43.022;25.100;2023-02-18T07:25:46;99859.31;;;9.68
70969;BMP280;58630;43.022;25.100;2023-02-18T07:28:12;99856.72;;;9.68
70969;BMP280;58630;43.022;25.100;2023-02-18T07:30:37;99853.09;;;9.69
70969;BMP280;58630;43.022;25.100;2023-02-18T07:33:02;99850.50;;;9.69
70969;BMP280;58630;43.022;25.100;2023-02-18T07:35:28;99839.88;;;9.71
70969;BMP280;58630;43.022;25.100;2023-02-18T07:37:53;99845.88;;;9.71
70969;BMP280;58630;43.022;25.100;2023-02-18T07:40:20;99844.03;;;9.72
70969;BMP280;58630;43.022;25.100;2023-02-18T07:42:45;99861.16;;;9.73
70969;BMP280;58630;43.022;25.100;2023-02-18T07:45:11;99855.97;;;9.73
70969;BMP280;58630;43.022;25.100;2023-02-18T07:47:36;99861.97;;;9.73
70969;BMP280;58630;43.022;25.100;2023-02-18T07:50:02;99864.56;;;9.73
70969;BMP280;58630;43.022;25.100;2023-02-18T07:52:27;99856.78;;;9.73
70969;BMP280;58630;43.022;25.100;2023-02-18T07:54:52;99853.16;;;9.74
70969;BMP280;58630;43.022;25.100;2023-02-18T07:57:18;99848.53;;;9.76
70969;BMP280;58630;43.022;25.100;2023-02-18T07:59:43;99848.28;;;9.78
70969;BMP280;58630;43.022;25.100;2023-02-18T08:02:14;99862.81;;;9.79
70969;BMP280;58630;43.022;25.100;2023-02-18T08:04:41;99854.03;;;9.80
70969;BMP280;58630;43.022;25.100;2023-02-18T08:07:06;99841.84;;;9.80
70969;BMP280;58630;43.022;25.100;2023-02-18T08:09:31;99846.00;;;9.81
70969;BMP280;58630;43.022;25.100;2023-02-18T08:11:57;99844.97;;;9.82
70969;BMP280;58630;43.022;25.100;2023-02-18T08:14:22;99841.34;;;9.83
70969;BMP280;58630;43.022;25.100;2023-02-18T08:16:47;99843.94;;;9.83
70969;BMP280;58630;43.022;25.100;2023-02-18T08:19:13;99841.13;;;9.85
70969;BMP280;58630;43.022;25.100;2023-02-18T08:21:38;99834.91;;;9.86
70969;BMP280;58630;43.022;25.100;2023-02-18T08:24:03;99843.25;;;9.88
70969;BMP280;58630;43.022;25.100;2023-02-18T08:26:28;99835.22;;;9.89
70969;BMP280;58630;43.022;25.100;2023-02-18T08:28:54;99831.56;;;9.90
70969;BMP280;58630;43.022;25.100;2023-02-18T08:31:24;99832.91;;;9.93
70969;BMP280;58630;43.022;25.100;2023-02-18T08:33:50;99825.13;;;9.93
70969;BMP280;58630;43.022;25.100;2023-02-18T08:36:15;99810.88;;;9.95
70969;BMP280;58630;43.022;25.100;2023-02-18T08:38:41;99823.38;;;9.98
70969;BMP280;58630;43.022;25.100;2023-02-18T08:41:07;99815.09;;;10.01
70969;BMP280;58630;43.022;25.100;2023-02-18T08:43:32;99820.06;;;10.03
70969;BMP280;58630;43.022;25.100;2023-02-18T08:45:57;99809.44;;;10.04
70969;BMP280;58630;43.022;25.100;2023-02-18T08:48:23;99803.75;;;10.07
70969;BMP280;58630;43.022;25.100;2023-02-18T08:50:49;99800.13;;;10.08
70969;BMP280;58630;43.022;25.100;2023-02-18T08:53:14;99798.09;;;10.10
70969;BMP280;58630;43.022;25.100;2023-02-18T08:55:40;99801.25;;;10.12
70969;BMP280;58630;43.022;25.100;2023-02-18T08:58:05;99791.38;;;10.14
70969;BMP280;58630;43.022;25.100;2023-02-18T09:00:30;99796.31;;;10.16
70969;BMP280;58630;43.022;25.100;2023-02-18T09:02:56;99790.66;;;10.19
70969;BMP280;58630;43.022;25.100;2023-02-18T09:05:21;99788.84;;;10.19
70969;BMP280;58630;43.022;25.100;2023-02-18T09:07:46;99797.19;;;10.21
70969;BMP280;58630;43.022;25.100;2023-02-18T09:10:12;99793.56;;;10.22
70969;BMP280;58630;43.022;25.100;2023-02-18T09:12:37;99796.69;;;10.24
70969;BMP280;58630;43.022;25.100;2023-02-18T09:15:03;99787.84;;;10.25
70969;BMP280;58630;43.022;25.100;2023-02-18T09:17:28;99789.97;;;10.28
70969;BMP280;58630;43.022;25.100;2023-02-18T09:19:54;99781.97;;;10.30
70969;BMP280;58630;43.022;25.100;2023-02-18T09:22:19;99780.66;;;10.32
70969;BMP280;58630;43.022;25.100;2023-02-18T09:24:44;99783.81;;;10.34
70969;BMP280;58630;43.022;25.100;2023-02-18T09:27:10;99793.94;;;10.36
70969;BMP280;58630;43.022;25.100;2023-02-18T09:29:37;99788.53;;;10.37
70969;BMP280;58630;43.022;25.100;2023-02-18T09:32:02;99791.66;;;10.39
70969;BMP280;58630;43.022;25.100;2023-02-18T09:34:28;99790.63;;;10.40
70969;BMP280;58630;43.022;25.100;2023-02-18T09:36:53;99793.78;;;10.42
70969;BMP280;58630;43.022;25.100;2023-02-18T09:39:19;99788.34;;;10.43
70969;BMP280;58630;43.022;25.100;2023-02-18T09:41:49;99786.53;;;10.44
70969;BMP280;58630;43.022;25.100;2023-02-18T09:44:26;99786.28;;;10.45
70969;BMP280;58630;43.022;25.100;2023-02-18T09:49:24;99789.75;;;10.56
70969;BMP280;58630;43.022;25.100;2023-02-18T09:51:50;99790.34;;;10.63
70969;BMP280;58630;43.022;25.100;2023-02-18T09:54:17;99787.56;;;10.69
70969;BMP280;58630;43.022;25.100;2023-02-18T09:56:42;99800.38;;;10.76
70969;BMP280;58630;43.022;25.100;2023-02-18T09:59:11;99794.41;;;10.80
70969;BMP280;58630;43.022;25.100;2023-02-18T10:01:38;99799.94;;;10.89
70969;BMP280;58630;43.022;25.100;2023-02-18T10:04:08;99788.53;;;10.95
70969;BMP280;58630;43.022;25.100;2023-02-18T10:06:34;99799.22;;;10.98
70969;BMP280;58630;43.022;25.100;2023-02-18T10:09:04;99804.53;;;11.08
70969;BMP280;58630;43.022;25.100;2023-02-18T10:11:40;99799.91;;;11.15
70969;BMP280;58630;43.022;25.100;2023-02-18T10:14:10;99800.66;;;11.15
70969;BMP280;58630;43.022;25.100;2023-02-18T10:16:35;99796.78;;;11.18
70969;BMP280;58630;43.022;25.100;2023-02-18T10:19:05;99787.69;;;11.20
70969;BMP280;58630;43.022;25.100;2023-02-18T10:21:36;99783.56;;;11.24
70969;BMP280;58630;43.022;25.100;2023-02-18T10:26:42;99795.06;;;11.33
70969;BMP280;58630;43.022;25.100;2023-02-18T10:29:15;99784.69;;;11.38
70969;BMP280;58630;43.022;25.100;2023-02-18T10:31:42;99779.53;;;11.43
70969;BMP280;58630;43.022;25.100;2023-02-18T10:36:46;99780.59;;;11.52
70969;BMP280;58630;43.022;25.100;2023-02-18T10:52:03;99777.63;;;11.80
70969;BMP280;58630;43.022;25.100;2023-02-18T10:54:46;99764.88;;;11.78
70969;BMP280;58630;43.022;25.100;2023-02-18T10:57:21;99757.84;;;11.79
70969;BMP280;58630;43.022;25.100;2023-02-18T10:59:54;99769.28;;;11.78
70969;BMP280;58630;43.022;25.100;2023-02-18T11:02:20;99773.19;;;11.80
70969;BMP280;58630;43.022;25.100;2023-02-18T11:04:45;99778.69;;;11.84
70969;BMP280;58630;43.022;25.100;2023-02-18T11:07:21;99772.97;;;11.87
70969;BMP280;58630;43.022;25.100;2023-02-18T11:12:22;99774.03;;;11.96
70969;BMP280;58630;43.022;25.100;2023-02-18T11:14:50;99758.41;;;11.96
70969;BMP280;58630;43.022;25.100;2023-02-18T11:17:29;99753.47;;;11.94
70969;BMP280;58630;43.022;25.100;2023-02-18T11:19:59;99736.00;;;11.95
70969;BMP280;58630;43.022;25.100;2023-02-18T11:22:33;99742.00;;;11.95
70969;BMP280;58630;43.022;25.100;2023-02-18T11:25:00;99756.59;;;12.01
70969;BMP280;58630;43.022;25.100;2023-02-18T11:27:37;99736.09;;;12.20
70969;BMP280;58630;43.022;25.100;2023-02-18T11:30:06;99739.72;;;12.14
70969;BMP280;58630;43.022;25.100;2023-02-18T11:32:39;99738.69;;;12.15
70969;BMP280;58630;43.022;25.100;2023-02-18T11:35:04;99740.22;;;12.16
70969;BMP280;58630;43.022;25.100;2023-02-18T11:37:31;99735.00;;;12.16
70969;BMP280;58630;43.022;25.100;2023-02-18T11:39:57;99720.72;;;12.23
70969;BMP280;58630;43.022;25.100;2023-02-18T11:42:23;99727.22;;;12.21
70969;BMP280;58630;43.022;25.100;2023-02-18T11:44:54;99728.78;;;12.22
70969;BMP280;58630;43.022;25.100;2023-02-18T11:47:25;99723.56;;;12.22
70969;BMP280;58630;43.022;25.100;2023-02-18T11:52:25;99722.56;;;12.28
70969;BMP280;58630;43.022;25.100;2023-02-18T11:54:59;99720.47;;;12.30
70969;BMP280;58630;43.022;25.100;2023-02-18T11:57:25;99733.53;;;12.35
70969;BMP280;58630;43.022;25.100;2023-02-18T11:59:51;99722.81;;;12.41
70969;BMP280;58630;43.022;25.100;2023-02-18T12:02:38;99723.88;;;12.45
70969;BMP280;58630;43.022;25.100;2023-02-18T12:05:15;99705.13;;;12.48
70969;BMP280;58630;43.022;25.100;2023-02-18T12:10:12;99717.88;;;12.59
70969;BMP280;58630;43.022;25.100;2023-02-18T12:12:43;99709.25;;;12.69
70969;BMP280;58630;43.022;25.100;2023-02-18T12:15:13;99736.38;;;12.83
70969;BMP280;58630;43.022;25.100;2023-02-18T12:17:49;99715.75;;;12.91
70969;BMP280;58630;43.022;25.100;2023-02-18T12:22:43;99712.09;;;12.97
70969;BMP280;58630;43.022;25.100;2023-02-18T12:48:13;99671.41;;;15.29
70969;BMP280;58630;43.022;25.100;2023-02-18T13:05:47;99644.72;;;17.21
70969;BMP280;58630;43.022;25.100;2023-02-18T13:08:26;99673.41;;;17.52
70969;BMP280;58630;43.022;25.100;2023-02-18T13:13:41;99641.78;;;18.40
70969;BMP280;58630;43.022;25.100;2023-02-18T13:16:09;99635.56;;;18.83
70969;BMP280;58630;43.022;25.100;2023-02-18T13:18:39;99638.09;;;19.30
70969;BMP280;58630;43.022;25.100;2023-02-18T13:21:06;99634.31;;;19.48
70969;BMP280;58630;43.022;25.100;2023-02-18T13:23:33;99646.59;;;19.27
70969;BMP280;58630;43.022;25.100;2023-02-18T13:26:01;99650.00;;;19.19
70969;BMP280;58630;43.022;25.100;2023-02-18T13:41:25;99649.88;;;20.69
70969;BMP280;58630;43.022;25.100;2023-02-18T13:43:51;99643.81;;;20.69
70969;BMP280;58630;43.022;25.100;2023-02-18T13:46:21;99651.34;;;20.58
70969;BMP280;58630;43.022;25.100;2023-02-18T13:51:29;99641.28;;;20.52
70969;BMP280;58630;43.022;25.100;2023-02-18T13:54:03;99672.47;;;20.58
70969;BMP280;58630;43.022;25.100;2023-02-18T13:56:30;99660.97;;;20.54
70969;BMP280;58630;43.022;25.100;2023-02-18T13:59:00;99643.88;;;20.60
70969;BMP280;58630;43.022;25.100;2023-02-18T14:01:37;99638.47;;;20.57
70969;BMP280;58630;43.022;25.100;2023-02-18T14:04:16;99640.88;;;20.41
70969;BMP280;58630;43.022;25.100;2023-02-18T14:09:46;99666.69;;;19.90
70969;BMP280;58630;43.022;25.100;2023-02-18T14:14:49;99663.19;;;19.44
70969;BMP280;58630;43.022;25.100;2023-02-18T14:19:42;99655.41;;;19.14
70969;BMP280;58630;43.022;25.100;2023-02-18T14:27:34;99661.75;;;19.13
70969;BMP280;58630;43.022;25.100;2023-02-18T14:30:03;99650.31;;;19.26
70969;BMP280;58630;43.022;25.100;2023-02-18T14:32:28;99656.81;;;19.20
70969;BMP280;58630;43.022;25.100;2023-02-18T14:35:16;99649.06;;;19.15
70969;BMP280;58630;43.022;25.100;2023-02-18T14:40:38;99647.38;;;19.44
70969;BMP280;58630;43.022;25.100;2023-02-18T14:43:18;99666.75;;;19.06
70969;BMP280;58630;43.022;25.100;2023-02-18T14:48:18;99658.94;;;18.76
70969;BMP280;58630;43.022;25.100;2023-02-18T14:50:47;99664.81;;;18.73
70969;BMP280;58630;43.022;25.100;2023-02-18T14:53:14;99661.81;;;18.57
70969;BMP280;58630;43.022;25.100;2023-02-18T14:55:45;99657.28;;;18.50
70969;BMP280;58630;43.022;25.100;2023-02-18T14:58:19;99652.66;;;18.47
70969;BMP280;58630;43.022;25.100;2023-02-18T15:00:48;99646.38;;;18.34
70969;BMP280;58630;43.022;25.100;2023-02-18T15:03:14;99649.00;;;18.26
70969;BMP280;58630;43.022;25.100;2023-02-18T15:05:40;99666.47;;;18.22
70969;BMP280;58630;43.022;25.100;2023-02-18T15:08:11;99661.63;;;18.15
70969;BMP280;58630;43.022;25.100;2023-02-18T15:15:48;99638.78;;;17.94
70969;BMP280;58630;43.022;25.100;2023-02-18T15:18:17;99669.22;;;17.87
70969;BMP280;58630;43.022;25.100;2023-02-18T15:20:44;99643.34;;;17.80
70969;BMP280;58630;43.022;25.100;2023-02-18T15:23:10;99649.78;;;17.74
70969;BMP280;58630;43.022;25.100;2023-02-18T15:25:37;99650.19;;;17.68
70969;BMP280;58630;43.022;25.100;2023-02-18T15:28:03;99653.25;;;17.61
70969;BMP280;58630;43.022;25.100;2023-02-18T15:30:29;99659.09;;;17.58
70969;BMP280;58630;43.022;25.100;2023-02-18T15:32:58;99647.16;;;17.52
70969;BMP280;58630;43.022;25.100;2023-02-18T15:35:25;99666.44;;;17.48
70969;BMP280;58630;43.022;25.100;2023-02-18T15:37:53;99654.97;;;17.44
70969;BMP280;58630;43.022;25.100;2023-02-18T15:40:20;99650.63;;;17.40
70969;BMP280;58630;43.022;25.100;2023-02-18T15:42:48;99659.66;;;17.34
70969;BMP280;58630;43.022;25.100;2023-02-18T15:45:23;99655.00;;;17.31
70969;BMP280;58630;43.022;25.100;2023-02-18T15:47:53;99652.50;;;17.26
70969;BMP280;58630;43.022;25.100;2023-02-18T15:50:21;99642.41;;;17.19
70969;BMP280;58630;43.022;25.100;2023-02-18T15:52:47;99656.13;;;17.16
70969;BMP280;58630;43.022;25.100;2023-02-18T15:57:50;99654.97;;;17.09
70969;BMP280;58630;43.022;25.100;2023-02-18T16:00:25;99650.31;;;17.06
70969;BMP280;58630;43.022;25.100;2023-02-18T16:02:51;99650.09;;;17.02
70969;BMP280;58630;43.022;25.100;2023-02-18T16:05:17;99645.91;;;17.01
70969;BMP280;58630;43.022;25.100;2023-02-18T16:07:55;99646.53;;;16.98
70969;BMP280;58630;43.022;25.100;2023-02-18T16:10:22;99643.69;;;16.95
70969;BMP280;58630;43.022;25.100;2023-02-18T16:12:49;99647.22;;;16.90
70969;BMP280;58630;43.022;25.100;2023-02-18T16:15:20;99643.31;;;16.88
70969;BMP280;58630;43.022;25.100;2023-02-18T16:17:46;99657.50;;;16.87
70969;BMP280;58630;43.022;25.100;2023-02-18T16:20:31;99651.00;;;16.84
70969;BMP280;58630;43.022;25.100;2023-02-18T16:23:01;99660.25;;;16.82
70969;BMP280;58630;43.022;25.100;2023-02-18T16:30:36;99650.72;;;16.73
70969;BMP280;58630;43.022;25.100;2023-02-18T16:33:05;99652.06;;;16.70
70969;BMP280;58630;43.022;25.100;2023-02-18T16:35:30;99651.59;;;16.68
70969;BMP280;58630;43.022;25.100;2023-02-18T16:37:56;99644.28;;;16.65
70969;BMP280;58630;43.022;25.100;2023-02-18T16:42:53;99651.75;;;16.58